sensor_id;sensor_type;location;lat;lon;timestamp;pressure;altitude;pressure_sealevel;temperature;humidity
61394;BME280;48555;50.952;-0.120;2023-08-24T00:01:57;101088.91;;;19.92;75.66
61394;BME280;48555;50.952;-0.120;2023-08-24T00:04:22;101081.41;;;19.87;75.71
61394;BME280;48555;50.952;-0.120;2023-08-24T00:06:47;101085.88;;;19.87;75.49
61394;BME280;48555;50.952;-0.120;2023-08-24T00:09:13;101080.59;;;19.87;75.74
61394;BME280;48555;50.952;-0.120;2023-08-24T00:11:40;101084.41;;;19.92;75.54
61394;BME280;48555;50.952;-0.120;2023-08-24T00:14:06;101082.25;;;19.96;75.38
61394;BME280;48555;50.952;-0.120;2023-08-24T00:16:31;101084.25;;;20.02;75.04
61394;BME280;48555;50.952;-0.120;2023-08-24T00:18:57;101082.09;;;20.06;75.03
61394;BME280;48555;50.952;-0.120;2023-08-24T00:21:23;101078.28;;;20.08;74.94
61394;BME280;48555;50.952;-0.120;2023-08-24T00:23:50;101073.16;;;20.07;74.62
61394;BME280;48555;50.952;-0.120;2023-08-24T00:26:15;101069.69;;;20.06;74.96
61394;BME280;48555;50.952;-0.120;2023-08-24T00:28:43;101074.13;;;20.06;74.81
61394;BME280;48555;50.952;-0.120;2023-08-24T00:31:09;101075.00;;;20.06;75.15
61394;BME280;48555;50.952;-0.120;2023-08-24T00:33:34;101076.16;;;20.04;74.95
61394;BME280;48555;50.952;-0.120;2023-08-24T00:36:00;101079.63;;;20.04;75.15
61394;BME280;48555;50.952;-0.120;2023-08-24T00:38:26;101071.47;;;20.06;75.37
61394;BME280;48555;50.952;-0.120;2023-08-24T00:40:51;101072.66;;;20.03;75.48
61394;BME280;48555;50.952;-0.120;2023-08-24T00:43:18;101072.81;;;20.02;75.44
61394;BME280;48555;50.952;-0.120;2023-08-24T00:45:47;101070.97;;;20.02;75.39
61394;BME280;48555;50.952;-0.120;2023-08-24T00:48:12;101066.00;;;19.99;75.72
61394;BME280;48555;50.952;-0.120;2023-08-24T00:50:38;101070.50;;;19.99;75.79
61394;BME280;48555;50.952;-0.120;2023-08-24T00:53:03;101063.84;;;19.94;75.59
61394;BME280;48555;50.952;-0.120;2023-08-24T00:55:29;101062.19;;;19.93;75.72
61394;BME280;48555;50.952;-0.120;2023-08-24T00:57:54;101060.53;;;19.92;75.84
61394;BME280;48555;50.952;-0.120;2023-08-24T01:00:21;101061.34;;;19.93;75.77
61394;BME280;48555;50.952;-0.120;2023-08-24T01:02:47;101065.97;;;19.91;75.86
61394;BME280;48555;50.952;-0.120;2023-08-24T01:05:12;101051.38;;;19.87;76.08
61394;BME280;48555;50.952;-0.120;2023-08-24T01:07:39;101049.75;;;19.86;76.02
61394;BME280;48555;50.952;-0.120;2023-08-24T01:10:05;101046.22;;;19.85;75.80
61394;BME280;48555;50.952;-0.120;2023-08-24T01:13:02;101039.44;;;19.83;75.99
61394;BME280;48555;50.952;-0.120;2023-08-24T01:18:12;101019.03;;;19.75;75.76
61394;BME280;48555;50.952;-0.120;2023-08-24T01:20:40;101020.53;;;19.78;75.82
61394;BME280;48555;50.952;-0.120;2023-08-24T01:28:37;101028.31;;;19.79;75.78
61394;BME280;48555;50.952;-0.120;2023-08-24T01:31:04;101026.34;;;19.81;75.59
61394;BME280;48555;50.952;-0.120;2023-08-24T01:33:30;101024.50;;;19.82;75.65
61394;BME280;48555;50.952;-0.120;2023-08-24T01:35:55;101026.00;;;19.84;75.87
61394;BME280;48555;50.952;-0.120;2023-08-24T01:38:20;101022.53;;;19.84;75.96
61394;BME280;48555;50.952;-0.120;2023-08-24T01:40:53;101028.84;;;19.83;75.66
61394;BME280;48555;50.952;-0.120;2023-08-24T01:43:29;101014.72;;;19.82;75.99
61394;BME280;48555;50.952;-0.120;2023-08-24T01:45:59;101014.72;;;19.82;75.95
61394;BME280;48555;50.952;-0.120;2023-08-24T01:48:25;101010.41;;;19.81;76.33
61394;BME280;48555;50.952;-0.120;2023-08-24T01:50:51;100999.13;;;19.71;76.80
61394;BME280;48555;50.952;-0.120;2023-08-24T01:53:16;100992.41;;;19.59;77.23
61394;BME280;48555;50.952;-0.120;2023-08-24T01:55:42;100988.44;;;19.55;77.57
61394;BME280;48555;50.952;-0.120;2023-08-24T01:58:08;100977.81;;;19.46;77.90
61394;BME280;48555;50.952;-0.120;2023-08-24T02:00:33;100963.38;;;19.41;78.35
61394;BME280;48555;50.952;-0.120;2023-08-24T02:02:59;100953.28;;;19.36;78.99
61394;BME280;48555;50.952;-0.120;2023-08-24T02:05:24;100936.19;;;19.31;78.42
61394;BME280;48555;50.952;-0.120;2023-08-24T02:07:52;100910.78;;;19.20;79.06
61394;BME280;48555;50.952;-0.120;2023-08-24T02:10:19;100912.66;;;19.27;79.07
61394;BME280;48555;50.952;-0.120;2023-08-24T02:12:44;100905.84;;;19.25;79.59
61394;BME280;48555;50.952;-0.120;2023-08-24T02:15:09;100894.22;;;19.26;79.08
61394;BME280;48555;50.952;-0.120;2023-08-24T02:17:35;100919.59;;;19.28;79.44
61394;BME280;48555;50.952;-0.120;2023-08-24T02:20:00;100917.44;;;19.32;79.39
61394;BME280;48555;50.952;-0.120;2023-08-24T02:22:25;100904.88;;;19.34;79.23
61394;BME280;48555;50.952;-0.120;2023-08-24T02:24:51;100907.03;;;19.39;79.05
61394;BME280;48555;50.952;-0.120;2023-08-24T02:27:16;100877.69;;;19.40;79.14
61394;BME280;48555;50.952;-0.120;2023-08-24T02:29:41;100840.56;;;19.32;79.50
61394;BME280;48555;50.952;-0.120;2023-08-24T02:32:07;100811.41;;;19.24;80.38
61394;BME280;48555;50.952;-0.120;2023-08-24T02:34:32;100804.09;;;19.10;81.58
61394;BME280;48555;50.952;-0.120;2023-08-24T02:36:57;100841.22;;;19.10;81.92
61394;BME280;48555;50.952;-0.120;2023-08-24T02:39:23;100859.78;;;19.18;81.15
61394;BME280;48555;50.952;-0.120;2023-08-24T02:41:49;100870.38;;;19.26;81.33
61394;BME280;48555;50.952;-0.120;2023-08-24T02:44:14;100861.63;;;19.34;80.85
61394;BME280;48555;50.952;-0.120;2023-08-24T02:46:39;100856.81;;;19.37;80.70
61394;BME280;48555;50.952;-0.120;2023-08-24T02:49:05;100864.44;;;19.40;80.26
61394;BME280;48555;50.952;-0.120;2023-08-24T02:51:30;100863.28;;;19.43;80.25
61394;BME280;48555;50.952;-0.120;2023-08-24T02:53:56;100875.88;;;19.41;80.30
61394;BME280;48555;50.952;-0.120;2023-08-24T02:56:21;100870.41;;;19.42;80.12
61394;BME280;48555;50.952;-0.120;2023-08-24T02:58:47;100876.06;;;19.47;80.36
61394;BME280;48555;50.952;-0.120;2023-08-24T03:01:12;100876.38;;;19.52;79.88
61394;BME280;48555;50.952;-0.120;2023-08-24T03:03:37;100864.94;;;19.52;79.91
61394;BME280;48555;50.952;-0.120;2023-08-24T03:06:07;100859.28;;;19.55;80.06
61394;BME280;48555;50.952;-0.120;2023-08-24T03:08:33;100843.56;;;19.54;80.36
61394;BME280;48555;50.952;-0.120;2023-08-24T03:11:00;100828.97;;;19.49;80.38
61394;BME280;48555;50.952;-0.120;2023-08-24T03:13:26;100817.88;;;19.46;80.77
61394;BME280;48555;50.952;-0.120;2023-08-24T03:15:52;100813.06;;;19.41;81.10
61394;BME280;48555;50.952;-0.120;2023-08-24T03:18:17;100825.31;;;19.42;80.97
61394;BME280;48555;50.952;-0.120;2023-08-24T03:20:44;100825.31;;;19.42;80.94
61394;BME280;48555;50.952;-0.120;2023-08-24T03:23:10;100833.97;;;19.44;81.01
61394;BME280;48555;50.952;-0.120;2023-08-24T03:25:37;100836.44;;;19.46;80.79
61394;BME280;48555;50.952;-0.120;2023-08-24T03:28:03;100836.09;;;19.49;80.59
61394;BME280;48555;50.952;-0.120;2023-08-24T03:30:29;100839.41;;;19.51;80.74
61394;BME280;48555;50.952;-0.120;2023-08-24T03:32:54;100843.38;;;19.55;80.46
61394;BME280;48555;50.952;-0.120;2023-08-24T03:35:20;100851.84;;;19.59;80.42
61394;BME280;48555;50.952;-0.120;2023-08-24T03:37:45;100851.50;;;19.62;80.48
61394;BME280;48555;50.952;-0.120;2023-08-24T03:40:12;100848.25;;;19.68;80.38
61394;BME280;48555;50.952;-0.120;2023-08-24T03:42:37;100849.56;;;19.72;80.39
61394;BME280;48555;50.952;-0.120;2023-08-24T03:45:03;100842.41;;;19.72;80.12
61394;BME280;48555;50.952;-0.120;2023-08-24T03:47:29;100859.16;;;19.81;79.78
61394;BME280;48555;50.952;-0.120;2023-08-24T03:49:54;100859.50;;;19.86;79.94
61394;BME280;48555;50.952;-0.120;2023-08-24T03:52:20;100866.78;;;19.92;79.70
61394;BME280;48555;50.952;-0.120;2023-08-24T03:54:45;100879.72;;;19.95;79.74
61394;BME280;48555;50.952;-0.120;2023-08-24T03:57:11;100876.88;;;19.97;79.50
61394;BME280;48555;50.952;-0.120;2023-08-24T03:59:36;100899.25;;;20.03;79.49
61394;BME280;48555;50.952;-0.120;2023-08-24T04:02:02;100889.16;;;20.06;79.43
61394;BME280;48555;50.952;-0.120;2023-08-24T04:04:30;100866.59;;;20.10;79.44
61394;BME280;48555;50.952;-0.120;2023-08-24T04:06:55;100846.00;;;20.12;79.48
61394;BME280;48555;50.952;-0.120;2023-08-24T04:09:21;100861.75;;;20.14;79.52
61394;BME280;48555;50.952;-0.120;2023-08-24T04:11:46;100852.81;;;20.15;79.59
61394;BME280;48555;50.952;-0.120;2023-08-24T04:14:11;100842.34;;;20.13;79.42
61394;BME280;48555;50.952;-0.120;2023-08-24T04:16:37;100833.56;;;20.13;79.49
61394;BME280;48555;50.952;-0.120;2023-08-24T04:19:03;100825.13;;;20.09;79.73
61394;BME280;48555;50.952;-0.120;2023-08-24T04:21:28;100816.00;;;20.04;79.63
61394;BME280;48555;50.952;-0.120;2023-08-24T04:23:53;100821.94;;;20.06;79.97
61394;BME280;48555;50.952;-0.120;2023-08-24T04:26:19;100812.53;;;20.03;80.00
61394;BME280;48555;50.952;-0.120;2023-08-24T04:28:44;100829.28;;;20.04;79.83
61394;BME280;48555;50.952;-0.120;2023-08-24T04:31:10;100844.19;;;20.05;80.19
61394;BME280;48555;50.952;-0.120;2023-08-24T04:33:35;100852.97;;;20.05;80.03
61394;BME280;48555;50.952;-0.120;2023-08-24T04:36:01;100845.84;;;20.06;80.00
61394;BME280;48555;50.952;-0.120;2023-08-24T04:38:28;100841.38;;;20.06;80.13
61394;BME280;48555;50.952;-0.120;2023-08-24T04:40:55;100838.88;;;20.05;80.26
61394;BME280;48555;50.952;-0.120;2023-08-24T04:43:21;100830.09;;;20.04;80.38
61394;BME280;48555;50.952;-0.120;2023-08-24T04:45:52;100816.50;;;19.99;80.52
61394;BME280;48555;50.952;-0.120;2023-08-24T04:48:22;100809.06;;;19.94;80.71
61394;BME280;48555;50.952;-0.120;2023-08-24T04:50:48;100792.63;;;19.91;80.95
61394;BME280;48555;50.952;-0.120;2023-08-24T04:53:16;100784.53;;;19.84;81.65
61394;BME280;48555;50.952;-0.120;2023-08-24T04:55:42;100795.31;;;19.83;81.80
61394;BME280;48555;50.952;-0.120;2023-08-24T04:58:08;100789.84;;;19.84;81.94
61394;BME280;48555;50.952;-0.120;2023-08-24T05:00:35;100779.69;;;19.88;82.04
61394;BME280;48555;50.952;-0.120;2023-08-24T05:03:01;100780.03;;;19.85;82.05
61394;BME280;48555;50.952;-0.120;2023-08-24T05:05:29;100778.53;;;19.82;82.29
61394;BME280;48555;50.952;-0.120;2023-08-24T05:07:55;100791.81;;;19.82;82.21
61394;BME280;48555;50.952;-0.120;2023-08-24T05:10:20;100792.47;;;19.84;82.33
61394;BME280;48555;50.952;-0.120;2023-08-24T05:12:46;100796.63;;;19.87;82.45
61394;BME280;48555;50.952;-0.120;2023-08-24T05:15:11;100794.97;;;19.86;82.47
61394;BME280;48555;50.952;-0.120;2023-08-24T05:17:38;100804.44;;;19.88;82.76
61394;BME280;48555;50.952;-0.120;2023-08-24T05:20:03;100802.75;;;19.87;82.73
61394;BME280;48555;50.952;-0.120;2023-08-24T05:22:29;100808.72;;;19.89;83.04
61394;BME280;48555;50.952;-0.120;2023-08-24T05:24:54;100819.34;;;19.89;83.04
61394;BME280;48555;50.952;-0.120;2023-08-24T05:27:20;100834.44;;;19.89;83.02
61394;BME280;48555;50.952;-0.120;2023-08-24T05:29:45;100839.22;;;19.93;83.25
61394;BME280;48555;50.952;-0.120;2023-08-24T05:32:10;100851.53;;;19.94;83.35
61394;BME280;48555;50.952;-0.120;2023-08-24T05:34:35;100857.66;;;19.95;83.43
61394;BME280;48555;50.952;-0.120;2023-08-24T05:37:01;100858.47;;;19.95;83.56
61394;BME280;48555;50.952;-0.120;2023-08-24T05:39:26;100849.50;;;19.96;83.60
61394;BME280;48555;50.952;-0.120;2023-08-24T05:41:52;100830.28;;;19.94;83.38
61394;BME280;48555;50.952;-0.120;2023-08-24T05:44:18;100824.47;;;19.99;83.53
61394;BME280;48555;50.952;-0.120;2023-08-24T05:46:44;100810.38;;;19.99;83.65
61394;BME280;48555;50.952;-0.120;2023-08-24T05:49:10;100787.31;;;19.99;83.37
61394;BME280;48555;50.952;-0.120;2023-08-24T05:51:36;100784.66;;;19.99;83.68
61394;BME280;48555;50.952;-0.120;2023-08-24T05:54:01;100798.09;;;19.98;83.72
61394;BME280;48555;50.952;-0.120;2023-08-24T05:56:26;100815.81;;;19.97;83.84
61394;BME280;48555;50.952;-0.120;2023-08-24T05:58:53;100821.31;;;19.95;83.75
61394;BME280;48555;50.952;-0.120;2023-08-24T06:01:18;100838.06;;;19.96;83.75
61394;BME280;48555;50.952;-0.120;2023-08-24T06:03:44;100856.31;;;19.91;83.63
61394;BME280;48555;50.952;-0.120;2023-08-24T06:06:09;100864.13;;;19.92;83.88
61394;BME280;48555;50.952;-0.120;2023-08-24T06:08:35;100866.78;;;19.92;83.88
61394;BME280;48555;50.952;-0.120;2023-08-24T06:11:00;100881.69;;;19.93;83.72
61394;BME280;48555;50.952;-0.120;2023-08-24T06:13:26;100887.00;;;19.93;83.49
61394;BME280;48555;50.952;-0.120;2023-08-24T06:15:51;100893.13;;;19.94;83.46
61394;BME280;48555;50.952;-0.120;2023-08-24T06:18:16;100881.69;;;19.93;83.36
61394;BME280;48555;50.952;-0.120;2023-08-24T06:20:42;100879.88;;;19.94;83.23
61394;BME280;48555;50.952;-0.120;2023-08-24T06:23:07;100876.88;;;19.97;83.14
61394;BME280;48555;50.952;-0.120;2023-08-24T06:25:33;100885.69;;;19.98;83.25
61394;BME280;48555;50.952;-0.120;2023-08-24T06:27:58;100890.16;;;19.97;83.23
61394;BME280;48555;50.952;-0.120;2023-08-24T06:30:25;100886.66;;;19.96;83.06
61394;BME280;48555;50.952;-0.120;2023-08-24T06:32:50;100871.09;;;19.93;83.31
61394;BME280;48555;50.952;-0.120;2023-08-24T06:35:16;100866.78;;;19.92;83.23
61394;BME280;48555;50.952;-0.120;2023-08-24T06:37:42;100859.97;;;19.90;83.38
61394;BME280;48555;50.952;-0.120;2023-08-24T06:40:08;100840.91;;;19.86;83.46
61394;BME280;48555;50.952;-0.120;2023-08-24T06:42:34;100825.00;;;19.78;83.88
61394;BME280;48555;50.952;-0.120;2023-08-24T06:44:59;100833.16;;;19.68;84.39
61394;BME280;48555;50.952;-0.120;2023-08-24T06:47:25;100831.28;;;19.61;84.53
61394;BME280;48555;50.952;-0.120;2023-08-24T06:49:50;100830.63;;;19.59;84.88
61394;BME280;48555;50.952;-0.120;2023-08-24T06:52:16;100823.31;;;19.61;84.95
61394;BME280;48555;50.952;-0.120;2023-08-24T06:54:41;100820.22;;;19.65;85.06
61394;BME280;48555;50.952;-0.120;2023-08-24T06:57:06;100815.22;;;19.70;85.01
61394;BME280;48555;50.952;-0.120;2023-08-24T06:59:32;100809.56;;;19.73;85.31
61394;BME280;48555;50.952;-0.120;2023-08-24T07:01:57;100791.19;;;19.72;85.34
61394;BME280;48555;50.952;-0.120;2023-08-24T07:04:23;100787.22;;;19.68;85.35
61394;BME280;48555;50.952;-0.120;2023-08-24T07:06:48;100792.69;;;19.66;85.42
61394;BME280;48555;50.952;-0.120;2023-08-24T07:09:14;100800.50;;;19.68;85.82
61394;BME280;48555;50.952;-0.120;2023-08-24T07:11:40;100808.75;;;19.73;85.76
61394;BME280;48555;50.952;-0.120;2023-08-24T07:14:05;100805.75;;;19.76;85.73
61394;BME280;48555;50.952;-0.120;2023-08-24T07:16:31;100802.63;;;19.81;85.91
61394;BME280;48555;50.952;-0.120;2023-08-24T07:18:56;100797.78;;;19.84;86.49
61394;BME280;48555;50.952;-0.120;2023-08-24T07:21:22;100791.31;;;19.87;86.32
61394;BME280;48555;50.952;-0.120;2023-08-24T07:23:47;100779.69;;;19.88;86.81
61394;BME280;48555;50.952;-0.120;2023-08-24T07:26:12;100771.09;;;19.86;87.08
61394;BME280;48555;50.952;-0.120;2023-08-24T07:28:38;100753.00;;;19.89;87.00
61394;BME280;48555;50.952;-0.120;2023-08-24T07:31:10;100723.97;;;19.88;86.90
61394;BME280;48555;50.952;-0.120;2023-08-24T07:33:38;100724.66;;;19.82;87.84
61394;BME280;48555;50.952;-0.120;2023-08-24T07:36:05;100734.94;;;19.85;87.58
61394;BME280;48555;50.952;-0.120;2023-08-24T07:38:30;100734.59;;;19.88;87.85
61394;BME280;48555;50.952;-0.120;2023-08-24T07:40:57;100733.75;;;19.87;88.90
61394;BME280;48555;50.952;-0.120;2023-08-24T07:43:22;100730.13;;;19.88;89.13
61394;BME280;48555;50.952;-0.120;2023-08-24T07:45:48;100730.59;;;19.92;89.40
61394;BME280;48555;50.952;-0.120;2023-08-24T07:48:13;100732.91;;;20.03;89.11
61394;BME280;48555;50.952;-0.120;2023-08-24T07:50:39;100739.47;;;20.15;88.72
61394;BME280;48555;50.952;-0.120;2023-08-24T07:53:04;100716.66;;;20.29;88.51
61394;BME280;48555;50.952;-0.120;2023-08-24T07:55:29;100686.78;;;20.35;88.57
61394;BME280;48555;50.952;-0.120;2023-08-24T07:57:55;100690.06;;;20.37;88.48
61394;BME280;48555;50.952;-0.120;2023-08-24T08:00:20;100702.63;;;20.43;88.36
61394;BME280;48555;50.952;-0.120;2023-08-24T08:02:49;100700.47;;;20.47;88.31
61394;BME280;48555;50.952;-0.120;2023-08-24T08:05:15;100695.63;;;20.51;88.18
61394;BME280;48555;50.952;-0.120;2023-08-24T08:07:40;100705.25;;;20.60;88.40
61394;BME280;48555;50.952;-0.120;2023-08-24T08:10:06;100712.50;;;20.66;88.08
61394;BME280;48555;50.952;-0.120;2023-08-24T08:12:32;100705.19;;;20.68;87.84
61394;BME280;48555;50.952;-0.120;2023-08-24T08:14:58;100701.16;;;20.72;88.00
61394;BME280;48555;50.952;-0.120;2023-08-24T08:17:24;100712.97;;;20.70;88.18
61394;BME280;48555;50.952;-0.120;2023-08-24T08:19:54;100721.75;;;20.70;87.82
61394;BME280;48555;50.952;-0.120;2023-08-24T08:22:20;100734.53;;;20.75;88.00
61394;BME280;48555;50.952;-0.120;2023-08-24T08:24:45;100758.75;;;20.80;87.92
61394;BME280;48555;50.952;-0.120;2023-08-24T08:27:10;100752.88;;;20.84;87.70
61394;BME280;48555;50.952;-0.120;2023-08-24T08:29:36;100754.97;;;20.97;87.53
61394;BME280;48555;50.952;-0.120;2023-08-24T08:32:01;100748.41;;;21.08;87.65
61394;BME280;48555;50.952;-0.120;2023-08-24T08:34:27;100763.47;;;21.16;87.47
61394;BME280;48555;50.952;-0.120;2023-08-24T08:36:52;100766.88;;;21.24;87.48
61394;BME280;48555;50.952;-0.120;2023-08-24T08:39:17;100752.50;;;21.33;87.36
61394;BME280;48555;50.952;-0.120;2023-08-24T08:41:43;100744.28;;;21.43;86.65
61394;BME280;48555;50.952;-0.120;2023-08-24T08:44:12;100741.72;;;21.50;86.40
61394;BME280;48555;50.952;-0.120;2023-08-24T08:46:39;100750.47;;;21.59;86.24
61394;BME280;48555;50.952;-0.120;2023-08-24T08:49:06;100760.03;;;21.68;86.14
61394;BME280;48555;50.952;-0.120;2023-08-24T08:51:33;100766.44;;;21.73;85.65
61394;BME280;48555;50.952;-0.120;2023-08-24T08:53:59;100765.16;;;21.84;85.52
61394;BME280;48555;50.952;-0.120;2023-08-24T08:56:25;100773.91;;;21.93;85.30
61394;BME280;48555;50.952;-0.120;2023-08-24T08:58:51;100779.13;;;22.01;85.02
61394;BME280;48555;50.952;-0.120;2023-08-24T09:01:18;100792.53;;;22.08;84.64
61394;BME280;48555;50.952;-0.120;2023-08-24T09:03:44;100784.00;;;22.12;84.43
61394;BME280;48555;50.952;-0.120;2023-08-24T09:06:10;100756.34;;;22.13;83.94
61394;BME280;48555;50.952;-0.120;2023-08-24T09:08:36;100753.63;;;22.07;83.40
61394;BME280;48555;50.952;-0.120;2023-08-24T09:11:01;100738.53;;;21.99;83.27
61394;BME280;48555;50.952;-0.120;2023-08-24T09:13:28;100739.72;;;21.96;83.45
61394;BME280;48555;50.952;-0.120;2023-08-24T09:15:55;100728.25;;;21.96;83.59
61394;BME280;48555;50.952;-0.120;2023-08-24T09:18:35;100699.56;;;21.91;83.87
61394;BME280;48555;50.952;-0.120;2023-08-24T09:21:07;100673.66;;;21.85;84.01
61394;BME280;48555;50.952;-0.120;2023-08-24T09:23:33;100667.06;;;21.81;84.24
61394;BME280;48555;50.952;-0.120;2023-08-24T09:25:58;100688.78;;;21.85;84.29
61394;BME280;48555;50.952;-0.120;2023-08-24T09:28:23;100703.03;;;21.92;84.22
61394;BME280;48555;50.952;-0.120;2023-08-24T09:30:53;100702.38;;;22.05;84.33
61394;BME280;48555;50.952;-0.120;2023-08-24T09:33:20;100695.19;;;22.20;84.61
61394;BME280;48555;50.952;-0.120;2023-08-24T09:35:53;100665.16;;;22.26;84.61
61394;BME280;48555;50.952;-0.120;2023-08-24T09:38:19;100672.59;;;22.52;84.17
61394;BME280;48555;50.952;-0.120;2023-08-24T09:40:47;100676.31;;;22.79;84.14
61394;BME280;48555;50.952;-0.120;2023-08-24T09:43:16;100661.75;;;22.97;83.18
61394;BME280;48555;50.952;-0.120;2023-08-24T09:45:49;100673.38;;;23.17;83.19
61394;BME280;48555;50.952;-0.120;2023-08-24T09:48:18;100681.34;;;23.39;82.67
61394;BME280;48555;50.952;-0.120;2023-08-24T09:50:50;100670.34;;;23.55;82.31
61394;BME280;48555;50.952;-0.120;2023-08-24T09:53:17;100643.69;;;23.62;80.54
61394;BME280;48555;50.952;-0.120;2023-08-24T09:55:49;100649.94;;;23.75;80.30
61394;BME280;48555;50.952;-0.120;2023-08-24T09:58:16;100651.84;;;23.88;79.82
61394;BME280;48555;50.952;-0.120;2023-08-24T10:00:45;100653.75;;;24.01;79.61
61394;BME280;48555;50.952;-0.120;2023-08-24T10:03:13;100660.56;;;24.17;79.62
61394;BME280;48555;50.952;-0.120;2023-08-24T10:05:42;100652.59;;;24.30;79.41
61394;BME280;48555;50.952;-0.120;2023-08-24T10:08:09;100650.16;;;24.42;79.55
61394;BME280;48555;50.952;-0.120;2023-08-24T10:10:36;100653.69;;;24.56;79.30
61394;BME280;48555;50.952;-0.120;2023-08-24T10:13:08;100663.59;;;24.75;79.33
61394;BME280;48555;50.952;-0.120;2023-08-24T10:15:36;100682.72;;;24.92;79.09
61394;BME280;48555;50.952;-0.120;2023-08-24T10:18:03;100659.88;;;25.03;78.88
61394;BME280;48555;50.952;-0.120;2023-08-24T10:20:30;100663.38;;;25.10;78.42
61394;BME280;48555;50.952;-0.120;2023-08-24T10:22:57;100664.63;;;25.14;78.24
61394;BME280;48555;50.952;-0.120;2023-08-24T10:25:23;100668.50;;;25.11;78.06
61394;BME280;48555;50.952;-0.120;2023-08-24T10:27:50;100685.59;;;25.10;77.95
61394;BME280;48555;50.952;-0.120;2023-08-24T10:30:17;100682.09;;;25.10;77.68
61394;BME280;48555;50.952;-0.120;2023-08-24T10:32:45;100670.81;;;25.14;77.54
61394;BME280;48555;50.952;-0.120;2023-08-24T10:35:11;100669.78;;;25.22;77.19
61394;BME280;48555;50.952;-0.120;2023-08-24T10:37:36;100664.81;;;25.32;77.06
61394;BME280;48555;50.952;-0.120;2023-08-24T10:40:02;100668.50;;;25.45;76.67
61394;BME280;48555;50.952;-0.120;2023-08-24T10:42:43;100668.28;;;25.46;75.96
61394;BME280;48555;50.952;-0.120;2023-08-24T10:45:09;100673.03;;;25.51;75.81
61394;BME280;48555;50.952;-0.120;2023-08-24T10:47:44;100657.53;;;25.53;75.77
61394;BME280;48555;50.952;-0.120;2023-08-24T10:50:11;100660.22;;;25.53;74.86
61394;BME280;48555;50.952;-0.120;2023-08-24T10:52:37;100674.44;;;25.47;73.93
61394;BME280;48555;50.952;-0.120;2023-08-24T10:55:05;100676.34;;;25.33;74.04
61394;BME280;48555;50.952;-0.120;2023-08-24T10:57:58;100686.44;;;25.24;73.89
61394;BME280;48555;50.952;-0.120;2023-08-24T11:00:26;100687.69;;;25.15;74.32
61394;BME280;48555;50.952;-0.120;2023-08-24T11:02:52;100695.25;;;25.11;74.65
61394;BME280;48555;50.952;-0.120;2023-08-24T11:05:24;100712.97;;;25.06;74.95
61394;BME280;48555;50.952;-0.120;2023-08-24T11:10:21;100715.88;;;24.98;75.40
61394;BME280;48555;50.952;-0.120;2023-08-24T11:15:44;100698.97;;;24.90;75.42
61394;BME280;48555;50.952;-0.120;2023-08-24T11:18:23;100703.09;;;24.86;75.35
61394;BME280;48555;50.952;-0.120;2023-08-24T11:21:00;100708.22;;;24.75;75.26
61394;BME280;48555;50.952;-0.120;2023-08-24T11:23:26;100707.81;;;24.78;75.11
61394;BME280;48555;50.952;-0.120;2023-08-24T11:25:53;100713.81;;;24.80;75.38
61394;BME280;48555;50.952;-0.120;2023-08-24T11:28:22;100709.69;;;24.84;75.57
61394;BME280;48555;50.952;-0.120;2023-08-24T11:30:48;100712.75;;;24.87;75.66
61394;BME280;48555;50.952;-0.120;2023-08-24T11:33:14;100716.47;;;24.93;75.74
61394;BME280;48555;50.952;-0.120;2023-08-24T11:35:42;100720.19;;;24.99;75.96
61394;BME280;48555;50.952;-0.120;2023-08-24T11:38:07;100689.09;;;25.04;75.77
61394;BME280;48555;50.952;-0.120;2023-08-24T11:40:33;100687.88;;;25.07;75.39
61394;BME280;48555;50.952;-0.120;2023-08-24T11:42:59;100697.56;;;25.14;75.51
61394;BME280;48555;50.952;-0.120;2023-08-24T11:45:30;100688.91;;;25.19;75.37
61394;BME280;48555;50.952;-0.120;2023-08-24T11:47:58;100672.25;;;25.24;75.13
61394;BME280;48555;50.952;-0.120;2023-08-24T11:50:24;100664.22;;;25.30;75.01
61394;BME280;48555;50.952;-0.120;2023-08-24T11:52:49;100675.28;;;25.41;74.58
61394;BME280;48555;50.952;-0.120;2023-08-24T11:55:15;100670.56;;;25.43;74.29
61394;BME280;48555;50.952;-0.120;2023-08-24T11:57:41;100669.09;;;25.47;73.83
61394;BME280;48555;50.952;-0.120;2023-08-24T12:00:07;100649.94;;;25.50;73.79
61394;BME280;48555;50.952;-0.120;2023-08-24T12:02:34;100640.28;;;25.49;74.17
61394;BME280;48555;50.952;-0.120;2023-08-24T12:05:01;100633.47;;;25.46;74.38
61394;BME280;48555;50.952;-0.120;2023-08-24T12:07:30;100635.72;;;25.49;74.34
61394;BME280;48555;50.952;-0.120;2023-08-24T12:10:00;100625.25;;;25.48;74.70
61394;BME280;48555;50.952;-0.120;2023-08-24T12:12:27;100614.97;;;25.45;74.46
61394;BME280;48555;50.952;-0.120;2023-08-24T12:14:52;100603.22;;;25.46;74.83
61394;BME280;48555;50.952;-0.120;2023-08-24T12:17:18;100600.53;;;25.46;74.94
61394;BME280;48555;50.952;-0.120;2023-08-24T12:20:00;100605.47;;;25.49;75.41
61394;BME280;48555;50.952;-0.120;2023-08-24T12:22:26;100612.03;;;25.53;75.64
61394;BME280;48555;50.952;-0.120;2023-08-24T12:24:51;100619.44;;;25.57;75.47
61394;BME280;48555;50.952;-0.120;2023-08-24T12:27:21;100626.00;;;25.61;75.46
61394;BME280;48555;50.952;-0.120;2023-08-24T12:29:47;100635.06;;;25.67;75.72
61394;BME280;48555;50.952;-0.120;2023-08-24T12:32:12;100638.16;;;25.71;76.09
61394;BME280;48555;50.952;-0.120;2023-08-24T12:34:40;100643.88;;;25.81;76.33
61394;BME280;48555;50.952;-0.120;2023-08-24T12:37:06;100645.91;;;25.92;76.35
61394;BME280;48555;50.952;-0.120;2023-08-24T12:39:38;100642.56;;;26.03;75.86
61394;BME280;48555;50.952;-0.120;2023-08-24T12:42:04;100628.69;;;26.13;75.15
61394;BME280;48555;50.952;-0.120;2023-08-24T12:44:30;100624.06;;;26.27;74.91
61394;BME280;48555;50.952;-0.120;2023-08-24T12:46:55;100620.28;;;26.35;74.59
61394;BME280;48555;50.952;-0.120;2023-08-24T12:49:21;100606.63;;;26.43;74.11
61394;BME280;48555;50.952;-0.120;2023-08-24T12:51:46;100605.75;;;26.49;73.87